CheckWX is a tool to help pilots better visualize weather data.  It is not intended as a substitute for an official pre-flight weather briefing.

07:19:23 UTC

LFPM METAR
Melun-Villaroche Air Base Airport
Melun/Villaroche, France
Current

19 mins ago

LFPM 180700Z AUTO 03007KT 350V090 CAVOK 11/05 Q1025
Observed
Sep-18 @ 07:00 UTC
Wind
  • 030° at 7 KTS
Visibility
10,000+ meters
Flight Rules
VFR
Cloud Levels
  • Clear skies
Temperature
11°C / 52°F
Dewpoint
C / 41°F
Humidity
67%
Altimeter
30.27" Hg
Pressure
1024.92 hPa
Previous

49 mins ago

LFPM 180630Z AUTO 02009KT 340V040 CAVOK 10/05 Q1025
Observed
Sep-18 @ 06:30 UTC
Wind
  • 020° at 9 KTS
Visibility
10,000+ meters
Flight Rules
VFR
Cloud Levels
  • Clear skies
Temperature
10°C / 50°F
Dewpoint
C / 41°F
Humidity
71%
Altimeter
30.27" Hg
Pressure
1024.92 hPa
Previous

1 hour ago

LFPM 180600Z AUTO 01006KT 350V050 CAVOK 09/05 Q1024
Observed
Sep-18 @ 06:00 UTC
Wind
  • 010° at 6 KTS
Visibility
10,000+ meters
Flight Rules
VFR
Cloud Levels
  • Clear skies
Temperature
C / 48°F
Dewpoint
C / 41°F
Humidity
76%
Altimeter
30.24" Hg
Pressure
1023.92 hPa